Time;durP1;ratioP1;P1;durP2;ratioP2;P2;SDS_P1;SDS_P2;PMS_P1;PMS_P2;Temp;Humidity;BMP_temperature;BMP_pressure;BME280_temperature;BME280_humidity;BME280_pressure;Samples;Min_cycle;Max_cycle;Signal;HPM_P1;HPM_P2
2022/01/12 00:01:36;;;;;;;94.77;47.83;;;10.40;91.70;;;;;;10268725;28;20187;-83
2022/01/12 00:06:39;;;;;;;99.87;52.43;;;10.60;91.60;;;;;;10269367;29;20185;-83
2022/01/12 00:11:41;;;;;;;87.53;47.33;;;10.60;91.60;;;;;;10252539;29;20191;-82
2022/01/12 00:16:48;;;;;;;107.17;52.17;;;10.80;90.90;;;;;;10252846;29;20188;-81
2022/01/12 00:21:51;;;;;;;107.20;52.33;;;10.50;91.20;;;;;;10271346;29;20187;-82
2022/01/12 00:37:36;;;;;;;101.60;53.50;;;10.90;90.50;;;;;;10254062;29;20258;-83
2022/01/12 00:42:39;;;;;;;106.43;56.23;;;10.60;90.90;;;;;;10254247;29;20215;-83
2022/01/12 00:47:41;;;;;;;108.57;53.07;;;10.60;90.60;;;;;;10253792;29;20183;-82
2022/01/12 00:52:43;;;;;;;115.03;57.23;;;10.70;90.60;;;;;;10270519;29;20191;-83
2022/01/12 00:57:47;;;;;;;113.67;57.87;;;10.90;90.20;;;;;;10277035;28;20215;-83
2022/01/12 01:02:49;;;;;;;123.47;61.23;;;10.90;89.90;;;;;;10269762;29;20222;-82
2022/01/12 01:07:52;;;;;;;114.03;57.30;;;10.80;90.00;;;;;;10233291;29;20199;-82
2022/01/12 01:12:55;;;;;;;134.77;66.90;;;10.70;90.20;;;;;;10203688;29;20211;-82
2022/01/12 01:28:40;;;;;;;123.27;59.60;;;10.90;89.70;;;;;;10219323;29;20258;-82
2022/01/12 01:33:43;;;;;;;132.23;65.87;;;10.70;89.90;;;;;;10218444;29;20211;-82
2022/01/12 01:38:46;;;;;;;128.60;64.83;;;10.90;89.70;;;;;;10201317;29;20203;-82
2022/01/12 01:54:36;;;;;;;159.23;81.13;;;10.60;90.30;;;;;;10199120;29;20227;-82
2022/01/12 01:59:39;;;;;;;131.50;69.30;;;10.60;89.90;;;;;;10198666;29;20211;-82
2022/01/12 02:04:42;;;;;;;133.43;69.37;;;10.70;89.70;;;;;;10210923;29;20278;-83
2022/01/12 02:09:45;;;;;;;137.43;68.10;;;10.70;89.60;;;;;;10209364;29;20199;-82
2022/01/12 02:15:03;;;;;;;138.27;69.73;;;10.60;89.80;;;;;;10193344;29;20238;-82
2022/01/12 02:20:24;;;;;;;136.93;68.50;;;10.50;89.70;;;;;;10210485;29;20231;-82
2022/01/12 02:35:14;;;;;;;133.53;67.77;;;10.70;89.40;;;;;;10208641;29;20309;-82
2022/01/12 02:36:27;;;;;;;126.47;69.03;;;10.70;89.60;;;;;;10211074;29;20238;-82
2022/01/12 02:41:30;;;;;;;135.67;70.20;;;10.80;88.90;;;;;;10191475;29;20275;-82
2022/01/12 02:53:39;;;;;;;129.43;68.73;;;10.90;87.90;;;;;;10209118;29;20755;-82
2022/01/12 02:57:19;;;;;;;129.90;65.83;;;10.80;88.10;;;;;;10206760;29;20290;-82
2022/01/12 03:07:36;;;;;;;135.73;72.97;;;10.60;88.60;;;;;;10177351;29;20235;-82
2022/01/12 03:12:41;;;;;;;129.33;68.70;;;10.40;89.20;;;;;;10190968;29;20713;-82
2022/01/12 03:17:46;;;;;;;120.57;65.10;;;10.50;89.50;;;;;;10206512;29;20254;-82
2022/01/12 03:22:49;;;;;;;127.60;64.00;;;10.40;90.00;;;;;;10188547;29;20262;-82
2022/01/12 03:27:56;;;;;;;124.07;66.70;;;10.40;89.80;;;;;;10194352;29;20702;-82
2022/01/12 03:38:25;;;;;;;141.97;73.03;;;10.50;88.60;;;;;;10085949;29;20295;-82
2022/01/12 03:43:28;;;;;;;130.70;66.67;;;10.50;87.90;;;;;;10084954;29;20265;-82
2022/01/12 03:48:30;;;;;;;129.13;68.33;;;10.40;89.40;;;;;;10086520;29;20767;-82
2022/01/12 03:53:33;;;;;;;134.13;67.67;;;10.20;89.20;;;;;;10070557;29;20701;-82
2022/01/12 03:58:37;;;;;;;126.13;63.53;;;10.20;89.40;;;;;;10085551;29;20264;-82
2022/01/12 04:03:44;;;;;;;123.73;63.43;;;10.20;89.70;;;;;;10085707;29;20324;-82
2022/01/12 04:08:47;;;;;;;124.57;64.80;;;10.20;89.50;;;;;;10100839;29;20425;-82
2022/01/12 04:13:50;;;;;;;124.33;64.50;;;10.10;89.90;;;;;;10133283;29;20792;-82
2022/01/12 04:18:53;;;;;;;113.93;62.07;;;10.10;90.10;;;;;;10206064;29;20267;-82
2022/01/12 04:23:57;;;;;;;116.97;60.30;;;10.20;89.70;;;;;;10205281;29;20254;-82
2022/01/12 04:29:00;;;;;;;109.17;59.13;;;10.10;90.00;;;;;;10189798;29;20995;-82
2022/01/12 04:34:06;;;;;;;119.63;62.90;;;10.10;88.80;;;;;;10188812;29;20239;-82
2022/01/12 04:39:08;;;;;;;114.80;60.23;;;10.00;90.00;;;;;;10188621;29;20301;-82
2022/01/12 04:44:12;;;;;;;104.23;57.97;;;9.80;90.30;;;;;;10209103;29;20780;-82
2022/01/12 04:49:46;;;;;;;115.80;61.27;;;9.90;90.60;;;;;;10196226;29;20259;-82
2022/01/12 04:54:44;;;;;;;106.60;58.87;;;9.90;90.50;;;;;;10195939;29;20270;-82
2022/01/12 05:00:03;;;;;;;114.10;60.40;;;9.90;90.10;;;;;;10210659;29;20302;-82
2022/01/12 05:15:34;;;;;;;114.27;59.57;;;9.60;90.90;;;;;;10209799;29;20854;-82
2022/01/12 05:20:38;;;;;;;101.43;55.83;;;9.80;90.30;;;;;;10207459;29;20698;-82
2022/01/12 05:25:41;;;;;;;105.00;58.00;;;9.70;90.80;;;;;;10210416;29;20318;-82
2022/01/12 05:30:44;;;;;;;129.50;64.83;;;9.60;90.80;;;;;;10194831;29;20231;-82
2022/01/12 05:35:46;;;;;;;115.40;59.67;;;9.70;90.30;;;;;;10194530;29;20687;-82
2022/01/12 05:40:53;;;;;;;105.23;57.80;;;9.50;90.60;;;;;;10178442;29;20247;-82
2022/01/12 05:46:09;;;;;;;113.13;60.07;;;9.50;90.80;;;;;;10193499;29;20727;-82
2022/01/12 05:51:11;;;;;;;126.93;64.50;;;9.20;90.50;;;;;;10201766;29;20219;-82
2022/01/12 05:56:14;;;;;;;109.87;57.77;;;9.00;91.40;;;;;;10193187;29;20267;-81
2022/01/12 06:01:18;;;;;;;108.87;56.70;;;8.80;91.90;;;;;;10191513;29;20282;-81
2022/01/12 06:06:23;;;;;;;99.47;53.70;;;8.80;92.10;;;;;;10189082;29;20303;-81
2022/01/12 06:11:27;;;;;;;104.60;57.30;;;9.20;92.00;;;;;;10207850;29;20246;-84
2022/01/12 06:16:31;;;;;;;109.13;56.50;;;9.40;91.30;;;;;;10193710;29;20290;-82
2022/01/12 06:21:34;;;;;;;105.87;55.37;;;9.30;91.20;;;;;;10193078;29;20652;-82
2022/01/12 06:26:51;;;;;;;117.20;58.47;;;9.10;91.60;;;;;;10190675;29;20442;-82
2022/01/12 06:31:56;;;;;;;126.20;64.23;;;9.20;91.30;;;;;;10192876;29;20380;-82
2022/01/12 06:37:00;;;;;;;110.30;56.07;;;9.20;90.60;;;;;;10192280;29;20246;-82
2022/01/12 06:42:03;;;;;;;118.50;61.10;;;9.10;91.60;;;;;;10208542;29;20302;-81
2022/01/12 06:47:06;;;;;;;120.43;58.00;;;9.20;91.30;;;;;;10192478;29;20317;-81
2022/01/12 06:52:08;;;;;;;215.33;90.03;;;-3.20;99.90;;;;;;10200003;29;20199;-94
2022/01/12 06:57:11;;;;;;;178.90;86.10;;;5.60;89.20;;;;;;10198228;29;20243;-94
2022/01/12 07:02:14;;;;;;;193.43;87.00;;;7.20;76.30;;;;;;10197102;29;20266;-91
2022/01/12 07:07:18;;;;;;;196.17;91.87;;;6.90;73.30;;;;;;10195169;29;20238;-92
2022/01/12 07:12:24;;;;;;;191.47;88.93;;;6.40;71.90;;;;;;10195173;29;20210;-93
2022/01/12 07:17:27;;;;;;;180.80;86.47;;;6.80;74.50;;;;;;10179227;29;20203;-93
2022/01/12 07:22:30;;;;;;;179.07;83.00;;;5.60;75.40;;;;;;10195038;29;20211;-93
2022/01/12 07:27:33;;;;;;;188.10;88.63;;;5.70;79.20;;;;;;10174835;29;20653;-93
2022/01/12 07:32:36;;;;;;;179.07;83.43;;;4.80;81.30;;;;;;10194672;29;20206;-94
2022/01/12 07:37:38;;;;;;;177.07;83.27;;;4.80;83.50;;;;;;10195109;29;20267;-93
2022/01/12 07:42:41;;;;;;;180.87;89.10;;;5.20;83.50;;;;;;10179085;29;20570;-93
2022/01/12 07:47:48;;;;;;;174.37;81.70;;;4.90;84.60;;;;;;10211762;29;20282;-93
2022/01/12 07:52:53;;;;;;;190.20;89.53;;;4.70;89.50;;;;;;10195011;29;20203;-92
2022/01/12 07:57:56;;;;;;;180.73;84.20;;;5.10;87.70;;;;;;10138627;29;20236;-93
2022/01/12 08:02:59;;;;;;;183.67;88.17;;;4.70;88.70;;;;;;10161750;29;20208;-93
2022/01/12 08:08:02;;;;;;;189.57;89.93;;;4.30;90.60;;;;;;10155693;29;20232;-94
2022/01/12 08:13:04;;;;;;;159.27;78.73;;;4.10;90.10;;;;;;10131985;29;20694;-93
2022/01/12 08:18:07;;;;;;;181.33;85.70;;;4.50;92.90;;;;;;10141684;29;20215;-92
2022/01/12 08:23:10;;;;;;;162.20;81.73;;;4.60;91.40;;;;;;10139651;29;20212;-93
2022/01/12 08:28:12;;;;;;;169.43;79.87;;;5.10;92.70;;;;;;10174186;29;20231;-92
2022/01/12 08:33:16;;;;;;;173.93;83.00;;;4.50;92.20;;;;;;10179155;29;20628;-92
2022/01/12 08:38:18;;;;;;;175.70;85.93;;;4.70;90.70;;;;;;10179085;29;20211;-93
2022/01/12 08:43:21;;;;;;;154.30;79.23;;;4.70;85.30;;;;;;10162282;29;20276;-92
2022/01/12 08:48:23;;;;;;;175.90;86.83;;;5.30;91.40;;;;;;10178579;29;20275;-94
2022/01/12 08:53:26;;;;;;;172.20;83.10;;;5.00;92.10;;;;;;10180673;29;20211;-94
2022/01/12 08:58:28;;;;;;;162.63;79.33;;;5.00;92.50;;;;;;10200125;29;20242;-94
2022/01/12 09:03:31;;;;;;;158.00;80.00;;;4.50;90.20;;;;;;10218661;29;20211;-94
2022/01/12 09:08:34;;;;;;;167.40;81.13;;;4.50;92.30;;;;;;10194449;29;20283;-94
2022/01/12 09:13:37;;;;;;;174.07;84.50;;;5.40;89.50;;;;;;10179599;29;20207;-93
2022/01/12 09:18:40;;;;;;;144.43;71.30;;;5.20;93.00;;;;;;10163626;29;20268;-94
2022/01/12 09:23:44;;;;;;;156.70;77.03;;;5.00;94.20;;;;;;10201224;29;20211;-94
2022/01/12 09:28:48;;;;;;;133.17;66.83;;;5.50;92.80;;;;;;10203373;29;20577;-94
2022/01/12 09:33:51;;;;;;;139.97;71.53;;;5.60;94.50;;;;;;10203539;29;20211;-94
2022/01/12 09:38:54;;;;;;;144.40;71.93;;;5.90;93.20;;;;;;10185480;29;20207;-95
2022/01/12 09:43:57;;;;;;;142.13;69.33;;;4.80;82.50;;;;;;10171434;29;20203;-94
2022/01/12 09:49:01;;;;;;;142.20;70.33;;;4.30;95.30;;;;;;10217890;29;20227;-93
2022/01/12 09:54:03;;;;;;;132.00;64.03;;;5.20;97.20;;;;;;10175618;29;20752;-94
2022/01/12 09:59:06;;;;;;;131.33;67.57;;;6.20;97.10;;;;;;10216382;29;20676;-95
2022/01/12 10:04:11;;;;;;;126.00;61.83;;;7.30;90.60;;;;;;10193330;29;20211;-94
2022/01/12 10:09:15;;;;;;;132.67;68.87;;;6.00;95.70;;;;;;10218198;29;20580;-94
2022/01/12 10:14:18;;;;;;;136.47;68.70;;;6.50;83.60;;;;;;10200774;29;20251;-93
2022/01/12 10:19:28;;;;;;;121.60;60.50;;;6.30;90.00;;;;;;10200199;29;20243;-95
2022/01/12 10:24:35;;;;;;;131.13;63.83;;;7.60;92.90;;;;;;10198730;29;20684;-94
2022/01/12 10:29:38;;;;;;;127.10;67.53;;;7.80;85.90;;;;;;10198292;29;20215;-95
2022/01/12 10:34:46;;;;;;;132.87;64.57;;;6.10;84.00;;;;;;10199540;29;20215;-94
2022/01/12 10:39:51;;;;;;;122.03;60.43;;;5.60;92.30;;;;;;10199529;29;20207;-93
2022/01/12 10:45:01;;;;;;;124.97;62.23;;;5.40;94.90;;;;;;10216936;29;20328;-94
2022/01/12 10:50:07;;;;;;;126.70;63.63;;;5.40;89.20;;;;;;10199354;29;20665;-95
2022/01/12 10:55:12;;;;;;;112.10;61.03;;;5.40;91.40;;;;;;10184167;29;20238;-94
2022/01/12 11:00:22;;;;;;;115.07;59.73;;;6.60;93.40;;;;;;10184864;29;20243;-95
2022/01/12 11:05:28;;;;;;;108.40;57.77;;;6.50;86.80;;;;;;10199989;29;20231;-95
2022/01/12 11:10:30;;;;;;;122.47;62.13;;;4.30;88.10;;;;;;10199219;29;20219;-95
2022/01/12 11:15:33;;;;;;;111.33;55.50;;;6.30;86.40;;;;;;10216563;29;20264;-96
2022/01/12 11:20:40;;;;;;;111.00;55.20;;;8.70;91.60;;;;;;10183666;29;20752;-93
2022/01/12 11:25:42;;;;;;;103.90;53.37;;;8.90;89.30;;;;;;10199694;29;20239;-94
2022/01/12 11:30:48;;;;;;;102.50;55.80;;;7.00;92.40;;;;;;10183588;29;20210;-95
2022/01/12 11:35:52;;;;;;;127.60;64.27;;;5.60;85.40;;;;;;10216551;29;20627;-96
2022/01/12 11:41:07;;;;;;;117.47;62.27;;;5.40;86.80;;;;;;10199209;29;20252;-95
2022/01/12 11:46:14;;;;;;;108.43;54.70;;;4.50;89.00;;;;;;10199265;29;20238;-95
2022/01/12 11:51:43;;;;;;;120.70;60.20;;;5.40;98.90;;;;;;10202731;29;20211;-94
2022/01/12 11:56:55;;;;;;;105.50;53.93;;;9.50;89.90;;;;;;10206915;29;20270;-95
2022/01/12 12:02:11;;;;;;;102.73;51.40;;;9.80;89.30;;;;;;10207841;29;20253;-95
2022/01/12 12:07:14;;;;;;;118.67;68.47;;;9.50;83.40;;;;;;10205774;29;20238;-95
2022/01/12 12:12:37;;;;;;;104.83;54.93;;;8.20;75.40;;;;;;10224228;29;20207;-94
2022/01/12 12:17:41;;;;;;;101.97;53.00;;;10.20;84.40;;;;;;10207178;29;20219;-95
2022/01/12 12:22:47;;;;;;;101.17;51.57;;;11.10;80.60;;;;;;10191028;29;20238;-94
2022/01/12 12:27:58;;;;;;;101.73;54.67;;;11.40;79.90;;;;;;10205783;29;20251;-95
2022/01/12 12:33:11;;;;;;;111.23;60.10;;;11.10;78.20;;;;;;10223005;29;20670;-94
2022/01/12 12:38:16;;;;;;;92.57;48.17;;;10.50;69.20;;;;;;10223277;29;20270;-94
2022/01/12 12:43:26;;;;;;;121.23;59.70;;;11.10;79.30;;;;;;10222797;29;20215;-95
2022/01/12 12:48:31;;;;;;;92.97;48.57;;;11.60;68.10;;;;;;10221055;29;20278;-94
2022/01/12 12:53:39;;;;;;;94.40;49.60;;;11.70;76.70;;;;;;10205440;29;20211;-95
2022/01/12 12:58:48;;;;;;;102.50;53.97;;;11.30;73.70;;;;;;10220928;29;20712;-95
2022/01/12 13:03:58;;;;;;;93.53;46.73;;;11.30;75.30;;;;;;10199567;29;20265;-94
2022/01/12 13:09:06;;;;;;;100.63;51.03;;;11.50;76.30;;;;;;10188419;29;20267;-95
2022/01/12 13:14:11;;;;;;;83.13;45.73;;;10.60;68.70;;;;;;10220801;29;20743;-96
2022/01/12 13:19:34;;;;;;;94.17;50.73;;;11.60;76.30;;;;;;10223550;29;20684;-95
2022/01/12 13:24:36;;;;;;;94.47;51.57;;;11.60;74.60;;;;;;10165679;29;20251;-96
2022/01/12 13:29:46;;;;;;;111.17;54.77;;;9.60;76.60;;;;;;10185053;29;20274;-95
2022/01/12 13:35:09;;;;;;;109.83;54.00;;;9.30;69.10;;;;;;10203946;29;20692;-95
2022/01/12 13:40:15;;;;;;;84.57;46.53;;;9.30;77.40;;;;;;10219703;29;20231;-95
2022/01/12 13:45:29;;;;;;;96.23;49.50;;;9.30;82.70;;;;;;10220136;29;20228;-95
2022/01/12 13:50:36;;;;;;;89.07;47.10;;;10.60;78.30;;;;;;10203497;29;20270;-95
2022/01/12 13:55:50;;;;;;;90.67;46.63;;;10.60;79.10;;;;;;10201930;29;20239;-95
2022/01/12 14:01:19;;;;;;;84.50;44.77;;;11.00;74.70;;;;;;10202342;29;20243;-96
2022/01/12 14:06:26;;;;;;;95.67;47.23;;;11.00;77.30;;;;;;10216606;29;20240;-95
2022/01/12 14:11:34;;;;;;;82.90;43.77;;;11.00;77.00;;;;;;10203312;29;20216;-95
2022/01/12 14:16:38;;;;;;;83.90;43.20;;;11.20;77.20;;;;;;10201987;29;20262;-95
2022/01/12 14:21:57;;;;;;;85.00;42.93;;;11.50;75.80;;;;;;10178302;29;20213;-95
2022/01/12 14:27:00;;;;;;;82.43;42.63;;;11.90;74.60;;;;;;10180594;29;20282;-94
2022/01/12 14:32:03;;;;;;;75.37;41.00;;;11.70;74.90;;;;;;10201610;29;20233;-95
2022/01/12 14:37:06;;;;;;;79.93;41.77;;;11.80;74.30;;;;;;10191539;29;20211;-94
2022/01/12 14:42:09;;;;;;;77.13;42.27;;;11.80;73.80;;;;;;10196641;29;20215;-94
2022/01/12 14:47:11;;;;;;;79.47;40.37;;;11.90;72.50;;;;;;10201491;29;20264;-94
2022/01/12 14:52:14;;;;;;;82.30;39.90;;;11.70;68.80;;;;;;10218586;29;20204;-95
2022/01/12 14:57:16;;;;;;;74.80;40.90;;;11.50;68.60;;;;;;10185052;29;20279;-94
2022/01/12 15:02:19;;;;;;;76.87;39.70;;;11.40;68.90;;;;;;10217358;29;20286;-95
2022/01/12 15:07:21;;;;;;;77.80;39.43;;;11.50;68.90;;;;;;10185201;29;20239;-94
2022/01/12 15:12:31;;;;;;;76.10;37.37;;;11.40;69.00;;;;;;10211577;29;20274;-85
2022/01/12 15:17:35;;;;;;;79.10;38.60;;;10.60;74.80;;;;;;10207061;29;20242;-85
2022/01/12 15:22:40;;;;;;;103.57;47.97;;;11.20;70.80;;;;;;10208119;29;20689;-88
2022/01/12 15:27:42;;;;;;;88.37;42.30;;;10.70;64.90;;;;;;10206628;29;20262;-86
2022/01/12 15:32:46;;;;;;;86.73;41.93;;;10.80;70.10;;;;;;10190484;29;20231;-86
2022/01/12 15:37:49;;;;;;;84.93;40.83;;;11.00;69.80;;;;;;10206543;29;20230;-86
2022/01/12 15:42:51;;;;;;;85.37;42.47;;;11.10;71.40;;;;;;10208321;29;20687;-86
2022/01/12 15:47:54;;;;;;;81.30;42.00;;;11.10;73.20;;;;;;10206939;29;20259;-86
2022/01/12 15:52:56;;;;;;;89.13;40.63;;;11.10;74.50;;;;;;10207398;29;20738;-86
2022/01/12 15:57:59;;;;;;;76.20;38.60;;;11.30;75.70;;;;;;10208103;29;20709;-85
2022/01/12 16:03:03;;;;;;;73.83;37.77;;;11.60;76.30;;;;;;10190367;29;20294;-85
2022/01/12 16:08:07;;;;;;;76.17;36.40;;;11.70;76.80;;;;;;10206373;29;20255;-86
2022/01/12 16:13:10;;;;;;;74.23;36.33;;;11.60;77.80;;;;;;10206925;29;20243;-86
2022/01/12 16:18:35;;;;;;;69.00;37.63;;;11.60;78.80;;;;;;10183827;29;20211;-85
2022/01/12 16:23:38;;;;;;;79.07;36.27;;;11.70;79.50;;;;;;10207201;29;20702;-86
2022/01/12 16:28:40;;;;;;;79.57;38.57;;;11.60;80.80;;;;;;10206634;29;20677;-86
2022/01/12 16:33:43;;;;;;;83.73;39.37;;;11.60;81.50;;;;;;9848169;29;9999980;-85
2022/01/12 16:38:47;;;;;;;69.17;35.27;;;11.50;81.40;;;;;;10190658;29;20290;-85
2022/01/12 16:43:50;;;;;;;66.97;33.60;;;11.60;82.60;;;;;;10193358;29;20703;-85
2022/01/12 16:48:53;;;;;;;72.73;34.60;;;11.60;83.40;;;;;;10194268;29;20299;-85
2022/01/12 16:54:16;;;;;;;79.20;36.03;;;11.60;83.80;;;;;;10210706;29;20263;-84
2022/01/12 16:59:18;;;;;;;67.80;34.37;;;11.60;83.70;;;;;;10211047;29;20246;-85
2022/01/12 17:04:22;;;;;;;64.83;33.60;;;11.50;84.60;;;;;;10211872;29;20267;-85
2022/01/12 17:09:24;;;;;;;75.87;37.33;;;11.80;84.30;;;;;;10212015;29;20298;-85
2022/01/12 17:14:27;;;;;;;62.37;32.07;;;11.80;84.00;;;;;;10212636;29;20242;-85
2022/01/12 17:19:35;;;;;;;69.77;33.73;;;11.80;84.60;;;;;;10212371;29;20237;-85
2022/01/12 17:25:07;;;;;;;77.13;29.70;;;11.90;85.00;;;;;;10212630;29;20235;-86
2022/01/12 17:30:09;;;;;;;69.77;30.83;;;12.10;90.50;;;;;;10212643;29;20666;-85
2022/01/12 17:35:12;;;;;;;76.77;31.03;;;13.70;90.20;;;;;;10211996;29;20484;-85
2022/01/12 17:40:15;;;;;;;72.57;30.97;;;10.50;99.90;;;;;;10189384;29;20246;-85
2022/01/12 17:45:17;;;;;;;65.20;31.13;;;12.00;95.50;;;;;;10210141;29;20247;-85
2022/01/12 17:50:25;;;;;;;58.80;29.10;;;12.20;93.90;;;;;;10192856;29;20282;-85
2022/01/12 17:55:30;;;;;;;72.33;30.77;;;12.20;93.10;;;;;;10192089;29;20295;-85
2022/01/12 18:00:33;;;;;;;59.83;28.10;;;12.20;92.70;;;;;;10179313;29;20264;-85
2022/01/12 18:05:35;;;;;;;62.73;29.03;;;12.20;92.40;;;;;;10189347;29;20239;-85
2022/01/12 18:10:39;;;;;;;66.87;29.97;;;12.00;92.50;;;;;;10174353;29;20315;-86
2022/01/12 18:15:44;;;;;;;64.33;28.77;;;12.20;92.10;;;;;;10192472;29;20294;-85
2022/01/12 18:20:48;;;;;;;60.37;28.60;;;12.20;91.90;;;;;;9848788;29;9999764;-85
2022/01/12 18:25:51;;;;;;;64.73;28.97;;;12.30;91.40;;;;;;10169224;29;20239;-85
2022/01/12 18:30:53;;;;;;;63.43;27.10;;;12.20;91.20;;;;;;10204235;29;20334;-84
2022/01/12 18:35:56;;;;;;;59.83;28.47;;;12.20;91.10;;;;;;10204871;29;20241;-85
2022/01/12 18:40:58;;;;;;;50.37;27.17;;;12.10;91.00;;;;;;10202443;29;20282;-85
2022/01/12 18:46:01;;;;;;;62.40;27.97;;;12.30;90.80;;;;;;10182196;29;20239;-85
2022/01/12 18:51:04;;;;;;;54.40;25.47;;;12.30;90.50;;;;;;10186030;29;20250;-85
2022/01/12 18:56:06;;;;;;;62.03;27.90;;;12.40;90.30;;;;;;10182558;29;20317;-85
2022/01/12 19:01:09;;;;;;;57.37;29.57;;;12.30;90.20;;;;;;10209525;29;20747;-85
2022/01/12 19:06:32;;;;;;;51.77;27.07;;;12.30;90.20;;;;;;10199551;29;20290;-85
2022/01/12 19:11:36;;;;;;;47.87;25.17;;;12.30;90.20;;;;;;10209152;29;20660;-85
2022/01/12 19:16:41;;;;;;;49.27;26.80;;;12.20;90.30;;;;;;10186507;29;20301;-86
2022/01/12 19:21:44;;;;;;;58.60;28.47;;;12.10;90.40;;;;;;10192542;29;20605;-86
2022/01/12 19:26:47;;;;;;;49.50;26.73;;;11.90;90.70;;;;;;10218333;29;20696;-86
2022/01/12 19:31:51;;;;;;;54.00;26.83;;;11.90;90.90;;;;;;10210595;29;20243;-86
2022/01/12 19:36:53;;;;;;;50.07;25.80;;;12.00;90.90;;;;;;10235368;28;20242;-86
2022/01/12 19:41:56;;;;;;;55.07;27.10;;;11.90;90.60;;;;;;10215319;29;20258;-87
2022/01/12 19:46:59;;;;;;;46.63;25.80;;;12.00;90.50;;;;;;10232397;29;20348;-86
2022/01/12 19:52:10;;;;;;;50.30;26.37;;;12.00;90.50;;;;;;10217778;29;20245;-86
2022/01/12 19:57:35;;;;;;;51.53;26.07;;;12.00;90.40;;;;;;10219418;29;20279;-86
2022/01/12 20:03:03;;;;;;;52.43;25.07;;;12.00;90.40;;;;;;10205416;29;20314;-86
2022/01/12 20:08:28;;;;;;;52.60;25.80;;;12.10;90.20;;;;;;10189879;29;20263;-86
2022/01/12 20:13:31;;;;;;;52.77;24.43;;;12.20;90.00;;;;;;10215769;29;20301;-86
2022/01/12 20:24:23;;;;;;;43.93;22.77;;;12.20;89.90;;;;;;10204461;29;20243;-86
2022/01/12 20:29:27;;;;;;;41.50;22.40;;;12.20;89.00;;;;;;10213223;29;20329;-86
2022/01/12 20:34:31;;;;;;;47.40;24.67;;;12.30;88.90;;;;;;10214218;29;20243;-86
2022/01/12 20:39:35;;;;;;;47.20;23.73;;;12.20;89.10;;;;;;10222409;29;20251;-86
2022/01/12 20:44:38;;;;;;;47.97;23.23;;;11.90;89.20;;;;;;10231838;29;20312;-86
2022/01/12 20:49:41;;;;;;;47.83;23.47;;;11.90;90.00;;;;;;10211311;29;20302;-85
2022/01/12 20:54:43;;;;;;;47.23;21.20;;;11.10;87.60;;;;;;10213372;29;20791;-86
2022/01/12 20:59:47;;;;;;;41.43;21.67;;;11.90;90.00;;;;;;10203638;29;20481;-87
2022/01/12 21:04:52;;;;;;;41.77;22.77;;;11.90;89.50;;;;;;10195490;29;20238;-86
2022/01/12 21:09:54;;;;;;;41.17;20.73;;;11.90;89.80;;;;;;10219001;29;20266;-87
2022/01/12 21:14:57;;;;;;;41.33;21.63;;;11.90;89.90;;;;;;10236615;28;20684;-86
2022/01/12 21:20:01;;;;;;;40.03;21.43;;;11.70;90.20;;;;;;10226079;28;20239;-86
2022/01/12 21:25:04;;;;;;;37.50;19.23;;;11.70;89.90;;;;;;10205337;28;20248;-86
2022/01/12 21:30:07;;;;;;;36.30;20.67;;;11.90;89.80;;;;;;10214271;29;20246;-86
2022/01/12 21:35:10;;;;;;;33.83;18.20;;;11.70;90.10;;;;;;10208667;29;20230;-86
2022/01/12 21:40:19;;;;;;;35.93;19.50;;;11.60;85.90;;;;;;10195539;29;20246;-86
2022/01/12 21:45:21;;;;;;;34.80;17.77;;;11.60;90.40;;;;;;10228523;29;20990;-86
2022/01/12 21:50:24;;;;;;;30.27;15.00;;;11.30;90.30;;;;;;10230181;29;20266;-86
2022/01/12 21:55:27;;;;;;;34.13;17.60;;;10.10;86.20;;;;;;10213860;29;20325;-86
2022/01/12 22:00:30;;;;;;;29.10;15.03;;;11.70;89.50;;;;;;10209906;29;20247;-86
2022/01/12 22:05:33;;;;;;;30.80;17.23;;;10.40;88.20;;;;;;10202226;29;20270;-86
2022/01/12 22:10:36;;;;;;;28.03;15.47;;;11.50;90.40;;;;;;10250809;29;20262;-86
2022/01/12 22:15:38;;;;;;;27.17;14.70;;;11.60;86.00;;;;;;10223090;29;20246;-86
2022/01/12 22:20:41;;;;;;;29.80;15.57;;;11.10;90.40;;;;;;10210530;29;20254;-86
2022/01/12 22:25:43;;;;;;;35.23;17.43;;;11.30;90.00;;;;;;10186542;29;20203;-86
2022/01/12 22:30:46;;;;;;;30.07;15.30;;;6.70;99.90;;;;;;10188705;29;20294;-86
2022/01/12 22:35:49;;;;;;;28.20;14.87;;;10.30;99.90;;;;;;10193257;29;20238;-86
2022/01/12 22:40:51;;;;;;;31.73;14.60;;;11.30;99.90;;;;;;10190265;29;20243;-85
2022/01/12 22:45:54;;;;;;;32.20;14.37;;;11.50;99.90;;;;;;10192965;29;20660;-86
2022/01/12 22:50:57;;;;;;;25.70;14.30;;;12.00;99.90;;;;;;10209059;29;20258;-85
2022/01/12 22:56:00;;;;;;;25.90;14.10;;;11.90;99.90;;;;;;10210082;29;20675;-85
2022/01/12 23:01:02;;;;;;;28.90;13.90;;;12.10;99.90;;;;;;10193251;29;20210;-85
2022/01/12 23:06:05;;;;;;;25.50;13.83;;;11.70;99.90;;;;;;10210434;29;20215;-86
2022/01/12 23:11:08;;;;;;;23.33;12.90;;;11.90;98.50;;;;;;10210230;29;20664;-85
2022/01/12 23:16:11;;;;;;;30.97;14.70;;;12.10;97.60;;;;;;10209689;29;20260;-85
2022/01/12 23:21:13;;;;;;;24.80;14.40;;;12.00;96.30;;;;;;10210700;29;20259;-85
2022/01/12 23:26:16;;;;;;;25.80;13.00;;;12.00;95.80;;;;;;10192499;29;20215;-86
2022/01/12 23:31:18;;;;;;;21.60;11.90;;;12.10;90.90;;;;;;10212473;29;20601;-85
2022/01/12 23:52:37;;;;;;;24.23;12.47;;;11.80;94.10;;;;;;10262305;29;20210;-86
2022/01/12 23:57:40;;;;;;;22.53;13.03;;;11.90;93.20;;;;;;10261789;29;20218;-85
